Time;durP1;ratioP1;P1;durP2;ratioP2;P2;SDS_P1;SDS_P2;PMS_P1;PMS_P2;Temp;Humidity;BMP_temperature;BMP_pressure;BME280_temperature;BME280_humidity;BME280_pressure;Samples;Min_cycle;Max_cycle;Signal;HPM_P1;HPM_P2
2022/10/14 00:01:41;;;;;;;25.90;17.43;;;;;;;12.90;100.00;100225.13;5006592;28;20222;-67
2022/10/14 00:04:06;;;;;;;18.90;16.73;;;;;;;12.94;100.00;100227.50;5008328;28;20186;-67
2022/10/14 00:06:32;;;;;;;18.67;16.77;;;;;;;12.87;100.00;100221.91;5014589;28;20190;-70
2022/10/14 00:09:00;;;;;;;21.47;16.17;;;;;;;12.97;100.00;100222.16;5013371;28;20206;-67
2022/10/14 00:11:29;;;;;;;17.97;16.17;;;;;;;12.96;100.00;100226.50;4998862;28;20663;-67
2022/10/14 00:13:56;;;;;;;18.33;16.03;;;;;;;13.02;100.00;100228.72;5011377;28;20266;-67
2022/10/14 00:16:31;;;;;;;17.10;14.73;;;;;;;12.93;100.00;100228.44;5001633;28;20229;-71
2022/10/14 00:18:57;;;;;;;16.60;14.03;;;;;;;12.91;100.00;100231.09;5011748;28;20178;-69
2022/10/14 00:21:23;;;;;;;16.77;14.83;;;;;;;12.91;100.00;100231.09;5014445;28;20268;-68
2022/10/14 00:23:49;;;;;;;14.97;13.67;;;;;;;12.97;100.00;100228.13;5007288;28;20667;-68
2022/10/14 00:26:18;;;;;;;15.37;13.83;;;;;;;12.97;100.00;100235.06;5013931;28;20213;-67
2022/10/14 00:28:44;;;;;;;16.27;12.97;;;;;;;12.94;100.00;100232.66;5012461;28;20685;-68
2022/10/14 00:31:09;;;;;;;14.23;12.73;;;;;;;12.82;100.00;100229.09;4999369;28;20222;-68
2022/10/14 00:33:35;;;;;;;13.93;11.97;;;;;;;12.82;100.00;100232.50;5006168;28;20189;-67
2022/10/14 00:36:03;;;;;;;14.73;13.07;;;;;;;12.83;100.00;100228.19;5013512;28;20191;-68
2022/10/14 00:38:28;;;;;;;15.07;12.33;;;;;;;12.86;100.00;100231.41;5012458;28;20329;-68
2022/10/14 00:40:54;;;;;;;14.00;12.17;;;;;;;12.85;100.00;100229.75;5005844;28;20324;-68
2022/10/14 00:43:22;;;;;;;13.77;12.07;;;;;;;12.86;100.00;100239.16;5022271;28;20623;-68
2022/10/14 00:45:47;;;;;;;13.33;11.93;;;;;;;12.89;100.00;100230.38;5012366;28;20249;-69
2022/10/14 00:48:14;;;;;;;12.80;10.70;;;;;;;12.85;100.00;100228.91;5012422;28;20666;-68
2022/10/14 00:50:42;;;;;;;16.30;11.40;;;;;;;12.86;100.00;100227.97;5004751;28;20283;-68
2022/10/14 00:53:10;;;;;;;12.43;11.13;;;;;;;12.69;100.00;100226.44;5023889;28;20183;-68
2022/10/14 00:55:37;;;;;;;12.43;11.03;;;;;;;12.78;100.00;100225.06;5011879;28;20547;-69
2022/10/14 00:58:03;;;;;;;12.80;10.70;;;;;;;12.82;100.00;100229.09;5013819;28;20191;-68
2022/10/14 01:00:29;;;;;;;18.23;11.63;;;;;;;12.86;100.00;100217.66;5005500;28;20241;-69
2022/10/14 01:02:55;;;;;;;12.20;10.87;;;;;;;12.79;100.00;100213.78;5025463;28;20297;-69
2022/10/14 01:05:21;;;;;;;13.27;11.27;;;;;;;12.83;100.00;100212.69;5012243;28;20182;-68
2022/10/14 01:08:01;;;;;;;11.67;10.57;;;;;;;12.71;100.00;100215.13;5011856;28;20584;-71
2022/10/14 01:11:18;;;;;;;13.50;10.57;;;;;;;12.60;100.00;100217.50;5010008;28;20232;-74
2022/10/14 01:14:05;;;;;;;14.57;11.27;;;;;;;12.71;100.00;100215.13;5012407;28;20262;-69
2022/10/14 01:17:05;;;;;;;14.30;11.83;;;;;;;12.65;100.00;100217.22;5000139;28;20274;-71
2022/10/14 01:19:48;;;;;;;14.53;11.83;;;;;;;12.74;100.00;100214.09;5000125;28;20198;-68
2022/10/14 01:22:38;;;;;;;16.70;11.80;;;;;;;12.57;100.00;100212.53;5018473;28;20772;-68
2022/10/14 01:25:15;;;;;;;13.87;11.40;;;;;;;12.61;100.00;100213.19;5013003;28;20265;-68
2022/10/14 01:27:46;;;;;;;11.90;10.67;;;;;;;12.51;100.00;100205.19;5013808;28;20174;-68
2022/10/14 01:30:12;;;;;;;15.90;11.90;;;;;;;12.61;100.00;100205.44;5003064;28;20194;-70
2022/10/14 01:32:47;;;;;;;18.70;11.70;;;;;;;12.43;100.00;100203.88;5011817;28;20187;-70
2022/10/14 01:35:18;;;;;;;12.03;10.63;;;;;;;12.39;100.00;100204.16;5013074;28;20265;-68
2022/10/14 01:37:49;;;;;;;16.77;11.70;;;;;;;12.40;100.00;100201.50;5013068;28;20638;-68
2022/10/14 01:40:41;;;;;;;11.93;9.90;;;;;;;12.29;100.00;100197.91;5003298;28;20199;-68
2022/10/14 01:43:07;;;;;;;12.10;11.00;;;;;;;12.18;100.00;100199.38;5011677;28;20634;-68
2022/10/14 01:45:35;;;;;;;11.67;10.03;;;;;;;12.01;100.00;100200.38;5011320;28;20226;-68
2022/10/14 01:48:03;;;;;;;12.33;10.57;;;;;;;12.11;100.00;100193.75;4997084;28;20217;-69
2022/10/14 01:50:30;;;;;;;13.57;11.60;;;;;;;12.00;100.00;100196.13;5004602;28;20225;-68
2022/10/14 01:53:05;;;;;;;11.93;10.73;;;;;;;12.01;100.00;100194.41;5011382;28;20185;-68
2022/10/14 01:55:36;;;;;;;12.93;10.57;;;;;;;11.98;100.00;100182.50;5009962;28;20328;-68
2022/10/14 01:58:02;;;;;;;12.43;10.67;;;;;;;11.94;100.00;100196.47;5010944;28;20728;-68
2022/10/14 02:00:28;;;;;;;12.70;10.80;;;;;;;12.10;100.00;100191.28;5004088;28;20234;-70
2022/10/14 02:02:53;;;;;;;12.37;10.90;;;;;;;11.90;100.00;100179.53;5023384;28;20539;-68
2022/10/14 02:05:31;;;;;;;11.00;10.00;;;;;;;11.87;100.00;100175.41;5012325;28;20221;-68
2022/10/14 02:08:06;;;;;;;12.07;10.43;;;;;;;11.93;100.00;100175.03;5014322;28;20233;-68
2022/10/14 02:10:44;;;;;;;13.00;10.40;;;;;;;12.09;100.00;100171.56;5004120;28;20241;-70
2022/10/14 02:13:40;;;;;;;12.13;10.37;;;;;;;12.03;100.00;100170.19;5011650;28;20190;-68
2022/10/14 02:16:52;;;;;;;12.03;10.23;;;;;;;11.95;100.00;100160.28;5003413;28;20182;-68
2022/10/14 02:19:32;;;;;;;12.00;9.90;;;;;;;12.11;100.00;100157.66;4997554;28;20285;-69
2022/10/14 02:22:24;;;;;;;13.27;9.77;;;;;;;11.87;100.00;100152.19;5004756;28;20218;-72
2022/10/14 02:24:56;;;;;;;10.77;9.70;;;;;;;11.84;100.00;100146.38;5012498;28;20182;-71
2022/10/14 02:27:25;;;;;;;12.20;9.90;;;;;;;11.86;100.00;100155.69;5011444;28;20190;-68
2022/10/14 02:29:53;;;;;;;14.20;9.90;;;;;;;12.08;100.00;100144.97;5011425;28;20217;-68
2022/10/14 02:32:20;;;;;;;13.07;10.10;;;;;;;12.09;100.00;100149.19;5002108;28;20236;-68
2022/10/14 02:34:49;;;;;;;15.23;11.57;;;;;;;12.07;100.00;100138.13;5010542;28;20183;-68
2022/10/14 02:37:16;;;;;;;13.70;10.27;;;;;;;12.21;100.00;100139.88;5010923;28;20276;-68
2022/10/14 02:39:53;;;;;;;11.90;10.17;;;;;;;12.29;100.00;100141.97;5010900;28;20905;-68
2022/10/14 02:42:18;;;;;;;14.27;10.67;;;;;;;12.35;100.00;100133.06;5001765;28;20241;-68
2022/10/14 02:44:52;;;;;;;14.27;10.53;;;;;;;12.41;100.00;100140.41;5010524;28;20233;-68
2022/10/14 02:47:18;;;;;;;13.13;10.20;;;;;;;12.33;100.00;100134.88;5010727;28;20222;-68
2022/10/14 02:49:43;;;;;;;13.10;9.80;;;;;;;12.32;100.00;100131.50;5012010;28;20248;-68
2022/10/14 02:52:08;;;;;;;14.27;10.00;;;;;;;12.37;100.00;100137.19;5017291;28;20606;-67
2022/10/14 02:54:33;;;;;;;12.70;10.07;;;;;;;12.33;100.00;100129.72;5009952;28;20183;-68
2022/10/14 02:56:59;;;;;;;11.23;9.80;;;;;;;12.35;100.00;100125.31;5010927;28;20187;-68
2022/10/14 02:59:24;;;;;;;15.43;11.07;;;;;;;12.26;100.00;100124.13;5012033;28;20575;-68
2022/10/14 03:01:49;;;;;;;11.97;10.27;;;;;;;12.24;100.00;100120.81;5005364;28;20213;-68
2022/10/14 03:04:14;;;;;;;15.90;11.17;;;;;;;12.36;100.00;100120.06;5015210;28;20611;-68
2022/10/14 03:06:40;;;;;;;12.03;9.93;;;;;;;12.40;100.00;100120.69;5019272;28;20649;-68
2022/10/14 03:09:05;;;;;;;13.07;11.70;;;;;;;12.39;100.00;100108.72;5011687;28;20199;-68
2022/10/14 03:11:30;;;;;;;17.57;10.40;;;;;;;12.52;100.00;100104.44;5003769;28;20271;-67
2022/10/14 03:13:56;;;;;;;12.67;10.90;;;;;;;12.56;100.00;100105.09;5017487;28;20713;-68
2022/10/14 03:16:21;;;;;;;12.83;11.53;;;;;;;12.54;100.00;100099.19;4996208;28;20690;-68
2022/10/14 03:18:46;;;;;;;14.77;11.87;;;;;;;12.58;100.00;100105.84;5006451;28;20201;-68
2022/10/14 03:21:12;;;;;;;13.70;11.17;;;;;;;12.65;100.00;100101.94;5007349;28;20234;-68
2022/10/14 03:23:37;;;;;;;15.07;11.63;;;;;;;12.63;100.00;100102.94;5014347;28;20179;-71
2022/10/14 03:26:02;;;;;;;15.07;13.23;;;;;;;12.70;100.00;100093.88;5014207;28;20179;-71
2022/10/14 03:28:27;;;;;;;14.40;11.73;;;;;;;12.78;100.00;100093.44;5015304;28;20289;-68
2022/10/14 03:30:53;;;;;;;14.20;12.03;;;;;;;12.75;100.00;100097.84;4979973;28;20591;-69
2022/10/14 03:33:18;;;;;;;15.93;12.53;;;;;;;12.54;100.00;100094.88;5004088;28;20175;-68
2022/10/14 03:35:43;;;;;;;15.20;12.93;;;;;;;12.65;100.00;100091.63;5014670;28;20604;-68
2022/10/14 03:38:08;;;;;;;14.80;12.93;;;;;;;12.63;100.00;100093.47;5013796;28;20237;-68
2022/10/14 03:40:34;;;;;;;14.20;12.70;;;;;;;12.54;100.00;100089.72;5006409;28;20234;-68
2022/10/14 03:43:00;;;;;;;18.17;14.40;;;;;;;12.48;100.00;100087.53;5026229;28;20547;-68
2022/10/14 03:45:27;;;;;;;17.23;13.27;;;;;;;12.49;100.00;100090.91;5013202;28;20321;-68
2022/10/14 03:47:52;;;;;;;17.73;13.63;;;;;;;12.40;100.00;100089.75;5013706;28;20210;-70
2022/10/14 03:50:19;;;;;;;15.67;13.93;;;;;;;12.32;100.00;100094.56;5006637;28;20725;-68
2022/10/14 03:52:44;;;;;;;15.67;14.03;;;;;;;12.46;100.00;100086.78;5027747;28;20191;-68
2022/10/14 03:55:09;;;;;;;17.70;13.80;;;;;;;12.53;100.00;100089.81;5014243;28;20376;-68
2022/10/14 03:57:34;;;;;;;21.90;14.50;;;;;;;12.62;100.00;100089.22;5014712;28;20214;-68
2022/10/14 04:00:00;;;;;;;15.93;13.97;;;;;;;12.54;100.00;100086.28;5014526;28;20259;-68
2022/10/14 04:02:25;;;;;;;21.83;14.93;;;;;;;12.61;100.00;100086.75;5007974;28;20233;-68
2022/10/14 04:04:50;;;;;;;17.43;14.50;;;;;;;12.77;100.00;100086.59;5014999;28;20183;-69
2022/10/14 04:07:15;;;;;;;16.23;14.57;;;;;;;12.70;100.00;100079.25;5013433;28;20190;-68
2022/10/14 04:09:41;;;;;;;17.20;15.40;;;;;;;12.56;100.00;100082.69;5012852;28;20220;-67
2022/10/14 04:12:06;;;;;;;17.60;15.03;;;;;;;12.55;100.00;100083.63;5019615;28;20249;-68
2022/10/14 04:14:32;;;;;;;21.67;15.40;;;;;;;12.70;100.00;100081.00;5014107;28;20182;-68
2022/10/14 04:16:57;;;;;;;19.80;14.53;;;;;;;12.74;100.00;100082.47;4999126;28;20187;-67
2022/10/14 04:19:23;;;;;;;15.40;13.80;;;;;;;12.70;100.00;100079.25;5013062;28;20551;-68
2022/10/14 04:21:48;;;;;;;16.93;15.03;;;;;;;12.86;100.00;100078.25;5018088;28;20300;-68
2022/10/14 04:24:14;;;;;;;16.60;14.90;;;;;;;12.86;100.00;100083.41;5011908;28;20175;-68
2022/10/14 04:26:40;;;;;;;16.60;14.77;;;;;;;12.84;100.00;100075.78;5012222;28;20210;-69
2022/10/14 04:29:05;;;;;;;17.37;15.50;;;;;;;12.77;100.00;100074.50;5008949;28;20305;-72
2022/10/14 04:31:30;;;;;;;16.83;14.40;;;;;;;12.84;100.00;100065.47;4985759;28;20222;-67
2022/10/14 04:33:55;;;;;;;15.90;14.23;;;;;;;12.85;100.00;100066.28;5011202;28;20245;-68
2022/10/14 04:36:21;;;;;;;18.23;15.20;;;;;;;12.93;100.00;100064.03;5003843;28;20194;-67
2022/10/14 04:38:46;;;;;;;21.00;15.00;;;;;;;12.96;100.00;100052.66;5012281;28;20238;-67
2022/10/14 04:41:11;;;;;;;18.53;16.17;;;;;;;13.02;100.00;100052.28;5012483;28;20332;-67
2022/10/14 04:43:37;;;;;;;16.83;14.93;;;;;;;12.86;100.00;100053.28;5011070;28;20197;-67
2022/10/14 04:46:02;;;;;;;19.23;16.07;;;;;;;12.96;100.00;100050.94;5013071;28;20272;-67
2022/10/14 04:48:27;;;;;;;17.17;15.43;;;;;;;12.97;100.00;100047.41;5013734;28;20206;-70
2022/10/14 04:50:53;;;;;;;20.00;16.07;;;;;;;13.05;100.00;100050.31;5009698;28;20214;-70
2022/10/14 04:53:19;;;;;;;17.30;14.90;;;;;;;13.06;100.00;100045.97;5022308;28;20179;-68
2022/10/14 04:55:45;;;;;;;18.00;15.47;;;;;;;13.09;100.00;100043.19;5013148;28;20183;-67
2022/10/14 04:58:11;;;;;;;18.30;15.47;;;;;;;12.93;100.00;100045.97;5012111;28;20177;-66
2022/10/14 05:00:37;;;;;;;17.60;15.87;;;;;;;12.96;100.00;100038.03;5003227;28;20230;-67
2022/10/14 05:03:02;;;;;;;18.07;16.13;;;;;;;13.03;100.00;100047.00;5009988;28;20240;-68
2022/10/14 05:05:27;;;;;;;17.37;15.63;;;;;;;12.98;100.00;100041.31;5012943;28;20233;-67
2022/10/14 05:07:53;;;;;;;19.90;15.67;;;;;;;12.96;100.00;100035.44;5013093;28;20639;-67
2022/10/14 05:10:18;;;;;;;17.83;15.93;;;;;;;13.07;100.00;100045.88;5005362;28;20191;-67
2022/10/14 05:12:43;;;;;;;17.03;15.27;;;;;;;13.11;100.00;100037.94;4998183;28;20550;-67
2022/10/14 05:15:10;;;;;;;17.03;15.30;;;;;;;12.98;100.00;100043.91;5012869;28;20191;-67
2022/10/14 05:17:36;;;;;;;18.73;16.30;;;;;;;13.06;100.00;100045.97;5011847;28;20625;-67
2022/10/14 05:20:03;;;;;;;18.27;15.67;;;;;;;13.06;100.00;100040.81;5009751;28;20187;-67
2022/10/14 05:22:28;;;;;;;17.73;15.93;;;;;;;13.07;100.00;100040.72;5010221;28;20206;-66
2022/10/14 05:24:53;;;;;;;18.10;16.03;;;;;;;12.97;100.00;100033.69;5012670;28;20227;-67
2022/10/14 05:27:19;;;;;;;17.23;14.83;;;;;;;12.89;100.00;100032.41;5012975;28;20548;-66
2022/10/14 05:29:44;;;;;;;19.57;17.07;;;;;;;12.86;100.00;100032.63;5012856;28;20203;-67
2022/10/14 05:32:09;;;;;;;16.37;14.63;;;;;;;12.92;100.00;100036.56;5003717;28;20221;-67
2022/10/14 05:34:34;;;;;;;21.27;16.20;;;;;;;12.92;100.00;100033.97;5012290;28;20629;-67
2022/10/14 05:37:00;;;;;;;18.17;16.17;;;;;;;12.89;100.00;100029.84;5012507;28;20179;-67
2022/10/14 05:39:25;;;;;;;16.93;15.13;;;;;;;12.99;100.00;100032.66;5012357;28;20207;-67
2022/10/14 05:41:50;;;;;;;16.10;14.40;;;;;;;12.93;100.00;100034.81;5016547;28;20279;-66
2022/10/14 05:44:16;;;;;;;16.13;14.47;;;;;;;12.97;100.00;100028.50;5010505;28;20608;-66
2022/10/14 05:46:41;;;;;;;16.37;14.40;;;;;;;13.06;100.00;100027.88;5010983;28;20218;-66
2022/10/14 05:49:07;;;;;;;16.37;13.87;;;;;;;12.96;100.00;100025.13;5010787;28;20234;-67
2022/10/14 05:51:32;;;;;;;18.73;14.70;;;;;;;12.96;100.00;100030.28;5013763;28;20230;-67
2022/10/14 05:53:58;;;;;;;17.33;14.73;;;;;;;12.90;100.00;100021.16;5010249;28;20183;-69
2022/10/14 05:56:23;;;;;;;16.37;14.67;;;;;;;12.91;100.00;100021.97;5014471;28;20222;-67
2022/10/14 05:58:48;;;;;;;16.77;14.90;;;;;;;12.97;100.00;100025.94;5024831;28;20206;-67
2022/10/14 06:01:14;;;;;;;15.53;13.60;;;;;;;12.80;100.00;100019.28;5014410;28;20343;-67
2022/10/14 06:03:39;;;;;;;14.90;13.33;;;;;;;12.85;100.00;100025.81;5018079;28;20253;-70
2022/10/14 06:06:04;;;;;;;15.13;13.27;;;;;;;12.77;100.00;100022.88;5011305;28;20174;-67
2022/10/14 06:08:30;;;;;;;14.80;13.33;;;;;;;12.68;100.00;100020.91;5010255;28;20988;-67
2022/10/14 06:10:55;;;;;;;16.53;14.43;;;;;;;12.61;100.00;100024.81;5003825;28;20263;-66
2022/10/14 06:13:21;;;;;;;16.00;13.83;;;;;;;12.54;100.00;100025.22;5020411;28;20178;-67
2022/10/14 06:15:47;;;;;;;16.20;13.97;;;;;;;12.52;100.00;100024.47;5010380;28;20212;-66
2022/10/14 06:18:12;;;;;;;15.77;13.63;;;;;;;12.58;100.00;100008.59;5012081;28;20752;-66
2022/10/14 06:20:37;;;;;;;16.40;14.80;;;;;;;12.71;100.00;100015.53;5006288;28;20225;-67
2022/10/14 06:23:03;;;;;;;16.47;14.70;;;;;;;12.64;100.00;100015.13;5010453;28;20194;-68
2022/10/14 06:25:29;;;;;;;18.00;14.70;;;;;;;12.72;100.00;100007.69;5009997;28;20634;-68
2022/10/14 06:28:00;;;;;;;18.83;15.53;;;;;;;12.80;100.00;100020.13;5010789;28;20182;-67
2022/10/14 06:30:25;;;;;;;18.27;15.17;;;;;;;12.93;100.00;100017.56;5001796;28;20238;-67
2022/10/14 06:32:51;;;;;;;16.50;14.77;;;;;;;13.06;100.00;100018.41;5010937;28;20171;-68
2022/10/14 06:35:17;;;;;;;17.97;13.90;;;;;;;13.15;100.00;100022.13;5011601;28;20548;-67
2022/10/14 06:37:44;;;;;;;16.20;14.60;;;;;;;13.07;100.00;100021.81;5010543;28;20187;-67
2022/10/14 06:40:10;;;;;;;16.73;14.63;;;;;;;13.18;100.00;100021.09;5002696;28;20206;-67
2022/10/14 06:42:35;;;;;;;15.40;13.77;;;;;;;13.20;100.00;100011.50;5010404;28;20232;-66
2022/10/14 06:45:00;;;;;;;27.23;14.77;;;;;;;13.31;100.00;100013.34;4997877;28;20253;-67
2022/10/14 06:47:26;;;;;;;16.13;14.20;;;;;;;13.12;100.00;100014.56;5005034;28;20280;-67
2022/10/14 06:49:51;;;;;;;14.80;13.23;;;;;;;13.05;100.00;100010.78;5005454;28;20209;-68
2022/10/14 06:52:16;;;;;;;15.97;13.33;;;;;;;12.86;100.00;100011.13;5007888;28;20964;-68
2022/10/14 06:54:41;;;;;;;15.47;13.83;;;;;;;12.71;100.00;100013.81;5010720;28;20190;-67
2022/10/14 06:57:07;;;;;;;15.20;13.70;;;;;;;12.81;100.00;100014.00;5016978;28;20237;-67
2022/10/14 06:59:32;;;;;;;16.70;14.93;;;;;;;12.85;100.00;100015.47;5015684;28;20202;-67
2022/10/14 07:01:57;;;;;;;18.10;13.87;;;;;;;12.87;100.00;100008.44;5010260;28;20378;-79
2022/10/14 07:04:22;;;;;;;17.13;14.10;;;;;;;12.97;100.00;100019.00;5004722;28;20215;-68
2022/10/14 07:06:48;;;;;;;17.80;14.43;;;;;;;13.03;100.00;100015.19;5013006;28;20646;-68
2022/10/14 07:09:13;;;;;;;15.43;13.67;;;;;;;13.14;100.00;100011.91;5003617;28;20211;-67
2022/10/14 07:11:38;;;;;;;20.70;13.77;;;;;;;13.20;100.00;100012.31;4999337;28;20253;-69
2022/10/14 07:14:04;;;;;;;14.93;13.33;;;;;;;13.13;100.00;100008.47;5007961;28;20182;-67
2022/10/14 07:16:29;;;;;;;16.03;12.23;;;;;;;13.09;100.00;100001.88;5010505;28;20312;-68
2022/10/14 07:18:54;;;;;;;14.17;12.57;;;;;;;13.05;100.00;100003.84;5014008;28;20565;-68
2022/10/14 07:21:20;;;;;;;14.33;12.40;;;;;;;12.84;100.00;100006.09;4986955;28;20226;-67
2022/10/14 07:23:45;;;;;;;13.07;11.43;;;;;;;13.03;100.00;100000.53;5002264;28;20595;-67
2022/10/14 07:26:10;;;;;;;16.10;12.43;;;;;;;13.25;100.00;99996.50;5005728;28;20669;-67
2022/10/14 07:28:36;;;;;;;14.53;12.17;;;;;;;13.50;100.00;100000.88;4999147;28;20277;-68
2022/10/14 07:31:07;;;;;;;13.67;11.60;;;;;;;13.54;100.00;100004.91;4974170;28;20728;-67
2022/10/14 07:33:37;;;;;;;14.47;11.67;;;;;;;13.50;100.00;100003.44;5011811;28;20273;-69
2022/10/14 07:36:09;;;;;;;16.63;11.47;;;;;;;13.41;100.00;100011.84;4997331;28;20218;-68
2022/10/14 07:38:35;;;;;;;14.40;12.50;;;;;;;13.24;100.00;100002.59;5005476;28;20225;-67
2022/10/14 07:41:06;;;;;;;15.50;11.43;;;;;;;13.49;100.00;100008.72;4989291;28;20725;-68
2022/10/14 07:43:33;;;;;;;17.03;11.40;;;;;;;13.82;100.00;100010.75;5004145;28;20229;-68
2022/10/14 07:46:04;;;;;;;15.20;11.93;;;;;;;13.88;100.00;100009.50;5003679;28;20269;-68
2022/10/14 07:48:31;;;;;;;16.87;12.07;;;;;;;13.35;100.00;100009.63;5004423;28;20277;-69
2022/10/14 07:50:56;;;;;;;16.23;11.33;;;;;;;13.18;100.00;100009.00;4992874;28;20277;-68
2022/10/14 07:53:22;;;;;;;13.60;12.27;;;;;;;13.21;100.00;100005.41;5012996;28;20278;-67
2022/10/14 07:55:51;;;;;;;13.73;11.47;;;;;;;13.30;100.00;100003.97;5012747;28;20201;-66
2022/10/14 07:58:21;;;;;;;16.40;11.73;;;;;;;13.39;100.00;100000.78;5012922;28;20178;-67
2022/10/14 08:00:47;;;;;;;14.83;11.30;;;;;;;13.54;100.00;99997.16;5004748;28;20226;-68
2022/10/14 08:03:12;;;;;;;14.93;11.80;;;;;;;14.01;100.00;99991.34;5008329;28;20195;-73
2022/10/14 08:05:37;;;;;;;15.80;12.50;;;;;;;14.15;100.00;99992.94;5014075;28;20232;-67
2022/10/14 08:08:03;;;;;;;13.37;11.83;;;;;;;13.66;100.00;99995.47;5014175;28;20293;-68
2022/10/14 08:10:28;;;;;;;15.90;11.57;;;;;;;13.80;100.00;99988.53;5007506;28;20579;-69
2022/10/14 08:12:53;;;;;;;16.13;11.73;;;;;;;13.47;100.00;99997.66;5013012;28;20182;-67
2022/10/14 08:15:18;;;;;;;17.40;11.63;;;;;;;13.67;100.00;100004.88;5012446;28;20237;-67
2022/10/14 08:17:44;;;;;;;14.33;11.17;;;;;;;13.71;100.00;99997.75;5014605;28;20195;-66
2022/10/14 08:20:09;;;;;;;15.40;11.83;;;;;;;13.41;100.00;100001.50;5004255;28;20202;-67
2022/10/14 08:22:35;;;;;;;16.57;12.03;;;;;;;13.52;100.00;100005.91;5013359;28;20290;-66
2022/10/14 08:25:00;;;;;;;14.97;12.20;;;;;;;13.71;100.00;100001.13;5002665;28;20785;-67
2022/10/14 08:27:25;;;;;;;16.20;12.00;;;;;;;13.71;100.00;100003.72;4994473;28;20180;-66
2022/10/14 08:29:51;;;;;;;15.17;12.40;;;;;;;13.72;100.00;100000.22;5000002;28;20226;-66
2022/10/14 08:32:16;;;;;;;13.90;12.43;;;;;;;13.63;100.00;100000.88;5000332;28;20317;-66
2022/10/14 08:34:41;;;;;;;14.00;12.57;;;;;;;13.71;100.00;100003.72;5013728;28;20197;-67
2022/10/14 08:37:10;;;;;;;15.97;12.67;;;;;;;13.69;100.00;99997.00;5014007;28;20183;-68
2022/10/14 08:39:35;;;;;;;16.97;14.00;;;;;;;13.60;100.00;99995.88;5011979;28;20735;-67
2022/10/14 08:42:00;;;;;;;15.93;14.33;;;;;;;13.48;100.00;99994.16;5012098;28;20250;-67
2022/10/14 08:44:38;;;;;;;17.63;15.93;;;;;;;13.45;100.00;99996.97;5001850;28;20174;-71
2022/10/14 08:47:09;;;;;;;18.40;14.33;;;;;;;13.49;100.00;99995.81;5002031;28;20297;-67
2022/10/14 08:50:00;;;;;;;18.83;16.20;;;;;;;13.14;100.00;99986.91;5005928;28;20549;-67
2022/10/14 08:52:31;;;;;;;18.20;16.13;;;;;;;13.18;100.00;99995.28;4996965;28;20230;-67
2022/10/14 08:55:01;;;;;;;18.57;16.50;;;;;;;13.32;100.00;99984.00;5012143;28;20233;-67
2022/10/14 08:57:37;;;;;;;20.33;18.20;;;;;;;13.57;100.00;99988.38;5012742;28;20198;-65
2022/10/14 09:00:03;;;;;;;19.13;17.20;;;;;;;13.68;100.00;99985.84;4999832;28;20179;-68
2022/10/14 09:02:51;;;;;;;19.17;17.17;;;;;;;13.74;100.00;99983.78;5017298;28;20203;-68
2022/10/14 09:05:20;;;;;;;21.03;18.43;;;;;;;13.92;100.00;99977.31;5009875;28;20186;-69
2022/10/14 09:07:48;;;;;;;22.50;18.20;;;;;;;13.99;100.00;99981.13;5004812;28;20187;-67
2022/10/14 09:10:22;;;;;;;19.00;16.10;;;;;;;14.31;100.00;99988.34;5006051;28;20193;-65
2022/10/14 09:12:47;;;;;;;19.97;16.23;;;;;;;14.05;100.00;99985.03;5011538;28;20195;-67
2022/10/14 09:15:17;;;;;;;19.30;16.97;;;;;;;14.30;100.00;99983.25;5012130;28;20190;-66
2022/10/14 09:17:57;;;;;;;18.13;16.30;;;;;;;15.01;100.00;99968.56;5008474;28;20193;-66
2022/10/14 09:20:24;;;;;;;21.00;15.70;;;;;;;15.37;100.00;99963.31;5006010;28;20222;-66
2022/10/14 09:23:09;;;;;;;20.03;15.50;;;;;;;14.71;100.00;99956.16;5006902;28;20510;-66
2022/10/14 09:25:39;;;;;;;18.73;16.20;;;;;;;15.19;100.00;99964.72;5008008;28;20193;-66
2022/10/14 09:28:04;;;;;;;21.57;16.27;;;;;;;15.21;100.00;99952.44;5007909;28;20490;-65
2022/10/14 09:30:36;;;;;;;18.13;15.13;;;;;;;15.49;100.00;99943.38;4988407;28;20215;-66
2022/10/14 09:33:03;;;;;;;16.63;14.93;;;;;;;15.79;100.00;99942.75;5000486;28;20186;-66
2022/10/14 09:35:31;;;;;;;17.90;14.57;;;;;;;15.48;100.00;99937.38;5011201;28;20646;-67
2022/10/14 09:37:57;;;;;;;20.17;15.13;;;;;;;15.40;100.00;99939.72;5009957;28;20274;-73
2022/10/14 09:40:36;;;;;;;18.50;15.83;;;;;;;15.02;100.00;99935.75;5003432;28;20289;-68
2022/10/14 09:43:14;;;;;;;18.43;16.37;;;;;;;15.21;100.00;99936.91;5023500;28;20198;-65
2022/10/14 09:45:56;;;;;;;18.07;14.90;;;;;;;15.69;100.00;99928.03;5011173;28;20308;-66
2022/10/14 09:48:46;;;;;;;17.20;15.53;;;;;;;15.51;100.00;99917.34;5007597;28;20186;-66
2022/10/14 09:51:19;;;;;;;17.77;14.87;;;;;;;15.37;100.00;99913.22;4991047;28;20234;-66
2022/10/14 09:53:50;;;;;;;17.50;15.67;;;;;;;15.48;100.00;99910.66;5003327;28;20198;-66
2022/10/14 09:56:27;;;;;;;14.47;12.97;;;;;;;15.69;100.00;99900.34;5010912;28;20174;-66
2022/10/14 09:58:56;;;;;;;14.20;12.70;;;;;;;15.39;100.00;99899.19;5011254;28;20562;-69
2022/10/14 10:01:26;;;;;;;19.20;13.60;;;;;;;15.32;100.00;99900.66;5003990;28;20251;-65
2022/10/14 10:03:53;;;;;;;16.00;12.33;;;;;;;15.47;100.00;99898.63;5005926;28;20535;-66
2022/10/14 10:06:22;;;;;;;16.20;13.63;;;;;;;14.86;100.00;99902.41;5010650;28;20194;-66
2022/10/14 10:09:00;;;;;;;17.70;12.93;;;;;;;15.03;100.00;99897.69;5012227;28;20226;-66
2022/10/14 10:11:38;;;;;;;20.63;13.57;;;;;;;15.16;100.00;99899.22;5011621;28;20225;-66
2022/10/14 10:14:24;;;;;;;16.90;13.23;;;;;;;15.13;100.00;99901.22;5000341;28;20232;-69
2022/10/14 10:17:08;;;;;;;16.73;13.17;;;;;;;14.94;100.00;99894.88;5010886;28;20886;-67
2022/10/14 10:19:39;;;;;;;15.70;12.17;;;;;;;14.81;100.00;99907.09;5010925;28;20207;-66
2022/10/14 10:22:25;;;;;;;16.93;11.63;;;;;;;14.76;100.00;99898.84;5016916;28;20681;-67
2022/10/14 10:25:12;;;;;;;15.57;12.23;;;;;;;14.81;100.00;99899.31;5009833;28;20557;-67
2022/10/14 10:27:46;;;;;;;15.37;12.13;;;;;;;14.84;100.00;99899.91;4991117;28;20229;-66
2022/10/14 10:30:19;;;;;;;16.60;11.77;;;;;;;14.49;100.00;99892.19;5002957;28;20293;-66
2022/10/14 10:33:12;;;;;;;13.10;11.70;;;;;;;14.64;100.00;99898.81;5010491;28;20230;-67
2022/10/14 10:36:16;;;;;;;13.70;12.17;;;;;;;14.53;100.00;99896.19;5007482;28;20178;-66
2022/10/14 10:39:01;;;;;;;15.90;12.13;;;;;;;14.83;100.00;99893.13;5007901;28;20209;-71
2022/10/14 10:41:47;;;;;;;15.40;11.80;;;;;;;14.89;100.00;99894.41;4986313;28;20238;-75
2022/10/14 10:44:28;;;;;;;16.33;11.07;;;;;;;14.79;100.00;99889.09;5002930;28;20199;-68
2022/10/14 10:47:31;;;;;;;14.77;11.57;;;;;;;14.72;100.00;99887.91;5011806;28;20241;-71
2022/10/14 10:50:27;;;;;;;14.77;11.10;;;;;;;14.68;100.00;99882.13;5010658;28;20206;-66
2022/10/14 10:53:05;;;;;;;12.83;10.97;;;;;;;14.88;100.00;99881.56;4993434;28;20222;-67
2022/10/14 10:56:03;;;;;;;13.63;12.23;;;;;;;14.73;100.00;99875.78;5008086;28;20585;-71
2022/10/14 10:59:06;;;;;;;15.50;12.23;;;;;;;14.59;100.00;99869.84;5007933;28;20196;-72
2022/10/14 11:01:50;;;;;;;13.83;10.93;;;;;;;14.51;100.00;99867.84;4978953;28;20226;-73
2022/10/14 11:04:31;;;;;;;15.67;12.47;;;;;;;14.73;100.00;99868.84;5001332;28;20190;-66
2022/10/14 11:13:05;;;;;;;17.23;13.37;;;;;;;14.63;100.00;99865.28;5005707;28;20214;-65
2022/10/14 11:15:33;;;;;;;14.47;11.70;;;;;;;14.36;100.00;99859.47;4999950;28;20229;-65
2022/10/14 11:18:19;;;;;;;14.73;13.30;;;;;;;14.29;100.00;99854.84;5021398;28;20191;-65
2022/10/14 11:21:04;;;;;;;15.33;13.73;;;;;;;14.29;100.00;99849.66;4986390;28;20254;-65
2022/10/14 11:24:12;;;;;;;15.93;13.00;;;;;;;14.30;100.00;99852.16;4990505;28;20179;-66